PWSweather.com
Personal Weather Stations
Station Observations

OlomoucCZ

Lat: 49.5936202181, Lon: 17.2276005149

Elevation: 752

Station Type: Davis Vantage Pro 2 Activ

http://infopocasi-olomouc.cz

High Low Average
Temperature 30.4°F-0.9°C 27.5°F-2.5°C 28.6°F-1.9°C
Dew Point 27.3°F-2.6°C 21.4°F-5.9°C 24.2°F-4.3°C
Winds 17.3 mph 27.8 kmh 4.6 mph 7.4 kmh 10.0 mph NW16.1 kmh NW
Wind Gusts 23.0 mph37.0 kmh 6.9 mph11.1 kmh 14.0 mph22.5 kmh
Humidity 93% 74% 84%
Pressure 30.36 in1028.1 mb 30.21 in1023.0 mb -
Precipitation 0.00 in0.0 mm - -
Hour Temp Dew Point Humidity Winds Wind Gusts Pressure Precip Precip Rate Daily Precip Total
12:00 AM 28.5°F-1.9°C 23.7°F-4.6°C 82% 10.4 mph WNW16.7 kmh WNW 13.8 mph22.2 kmh 30.21 in1023.0 mb - 0.00 in0.0 mm 0.00 in0.0 mm
12:30 AM 28.3°F-2.1°C 23.5°F-4.7°C 82% 17.3 mph NW27.8 kmh NW 23.0 mph37.0 kmh 30.23 in1023.7 mb - 0.00 in0.0 mm 0.00 in0.0 mm
01:00 AM 27.9°F-2.3°C 23.4°F-4.8°C 83% 6.9 mph W11.1 kmh W 11.5 mph18.5 kmh 30.23 in1023.7 mb - 0.00 in0.0 mm 0.00 in0.0 mm
01:30 AM 27.7°F-2.4°C 23.5°F-4.7°C 84% 9.2 mph WNW14.8 kmh WNW 15.0 mph24.1 kmh 30.24 in1024.0 mb - 0.00 in0.0 mm 0.00 in0.0 mm
02:00 AM 28.2°F-2.1°C 23.7°F-4.6°C 83% 8.1 mph WNW13.0 kmh WNW 11.5 mph18.5 kmh 30.25 in1024.4 mb - 0.00 in0.0 mm 0.00 in0.0 mm
02:30 AM 28.8°F-1.8°C 22.2°F-5.4°C 76% 8.1 mph NW13.0 kmh NW 10.4 mph16.7 kmh 30.25 in1024.4 mb - 0.00 in0.0 mm 0.00 in0.0 mm
03:00 AM 28.9°F-1.7°C 21.9°F-5.6°C 75% 11.5 mph NW18.5 kmh NW 17.3 mph27.8 kmh 30.25 in1024.4 mb - 0.00 in0.0 mm 0.00 in0.0 mm
03:30 AM 28.7°F-1.8°C 21.4°F-5.9°C 74% 10.4 mph NW16.7 kmh NW 11.5 mph18.5 kmh 30.25 in1024.4 mb - 0.00 in0.0 mm 0.00 in0.0 mm
04:00 AM 28.4°F-2.0°C 21.8°F-5.7°C 76% 11.5 mph WNW18.5 kmh WNW 15.0 mph24.1 kmh 30.25 in1024.4 mb - 0.00 in0.0 mm 0.00 in0.0 mm
04:30 AM 28.3°F-2.1°C 22.3°F-5.4°C 78% 6.9 mph NW11.1 kmh NW 11.5 mph18.5 kmh 30.25 in1024.4 mb - 0.00 in0.0 mm 0.00 in0.0 mm
05:00 AM 27.5°F-2.5°C 23.3°F-4.8°C 84% 15.0 mph WNW24.1 kmh WNW 23.0 mph37.0 kmh 30.25 in1024.4 mb - 0.00 in0.0 mm 0.00 in0.0 mm
05:30 AM 27.7°F-2.4°C 23.2°F-4.9°C 83% 13.8 mph WNW22.2 kmh WNW 19.6 mph31.5 kmh 30.26 in1024.7 mb - 0.00 in0.0 mm 0.00 in0.0 mm
06:00 AM 28.1°F-2.2°C 23.3°F-4.8°C 82% 15.0 mph NW24.1 kmh NW 19.6 mph31.5 kmh 30.27 in1025.1 mb - 0.00 in0.0 mm 0.00 in0.0 mm
06:30 AM 27.8°F-2.3°C 23.6°F-4.7°C 84% 9.2 mph NW14.8 kmh NW 10.4 mph16.7 kmh 30.27 in1025.1 mb - 0.00 in0.0 mm 0.00 in0.0 mm
07:00 AM 27.9°F-2.3°C 23.4°F-4.8°C 83% 11.5 mph WNW18.5 kmh WNW 15.0 mph24.1 kmh 30.27 in1025.1 mb - 0.00 in0.0 mm 0.00 in0.0 mm
07:30 AM 28.6°F-1.9°C 22.9°F-5.1°C 79% 8.1 mph NW13.0 kmh NW 12.7 mph20.4 kmh 30.28 in1025.4 mb - 0.00 in0.0 mm 0.00 in0.0 mm
08:00 AM 28.6°F-1.9°C 23.2°F-4.9°C 80% 9.2 mph WNW14.8 kmh WNW 13.8 mph22.2 kmh 30.28 in1025.4 mb - 0.00 in0.0 mm 0.00 in0.0 mm
08:30 AM 27.8°F-2.3°C 24.2°F-4.3°C 86% 6.9 mph NNW11.1 kmh NNW 10.4 mph16.7 kmh 30.29 in1025.7 mb - 0.00 in0.0 mm 0.00 in0.0 mm
09:00 AM 28.3°F-2.1°C 24.4°F-4.2°C 85% 9.2 mph WNW14.8 kmh WNW 12.7 mph20.4 kmh 30.29 in1025.7 mb - 0.00 in0.0 mm 0.00 in0.0 mm
09:30 AM 28.1°F-2.2°C 25.0°F-3.9°C 88% 12.7 mph W20.4 kmh W 16.1 mph25.9 kmh 30.29 in1025.7 mb - 0.00 in0.0 mm 0.00 in0.0 mm
10:00 AM 28.6°F-1.9°C 25.5°F-3.6°C 88% 5.8 mph NW9.3 kmh NW 10.4 mph16.7 kmh 30.29 in1025.7 mb - 0.00 in0.0 mm 0.00 in0.0 mm
10:30 AM 27.9°F-2.3°C 25.9°F-3.4°C 92% 9.2 mph WNW14.8 kmh WNW 11.5 mph18.5 kmh 30.29 in1025.7 mb - 0.00 in0.0 mm 0.00 in0.0 mm
11:00 AM 28.3°F-2.1°C 26.5°F-3.1°C 93% 4.6 mph NW7.4 kmh NW 6.9 mph11.1 kmh 30.28 in1025.4 mb - 0.00 in0.0 mm 0.00 in0.0 mm
11:30 AM 28.5°F-1.9°C 26.5°F-3.1°C 92% 5.8 mph WNW9.3 kmh WNW 15.0 mph24.1 kmh 30.27 in1025.1 mb - 0.00 in0.0 mm 0.00 in0.0 mm
12:00 PM 28.8°F-1.8°C 26.7°F-2.9°C 92% 8.1 mph WNW13.0 kmh WNW 10.4 mph16.7 kmh 30.26 in1024.7 mb - 0.00 in0.0 mm 0.00 in0.0 mm
12:30 PM 29.2°F-1.6°C 26.9°F-2.8°C 91% 6.9 mph NW11.1 kmh NW 12.7 mph20.4 kmh 30.25 in1024.4 mb - 0.00 in0.0 mm 0.00 in0.0 mm
01:00 PM 29.4°F-1.4°C 26.8°F-2.9°C 90% 6.9 mph WNW11.1 kmh WNW 11.5 mph18.5 kmh 30.25 in1024.4 mb - 0.00 in0.0 mm 0.00 in0.0 mm
01:30 PM 30.1°F-1.1°C 27.3°F-2.6°C 89% 9.2 mph NW14.8 kmh NW 12.7 mph20.4 kmh 30.25 in1024.4 mb - 0.00 in0.0 mm 0.00 in0.0 mm
02:00 PM 30.1°F-1.1°C 27.0°F-2.8°C 88% 8.1 mph NW13.0 kmh NW 13.8 mph22.2 kmh 30.25 in1024.4 mb - 0.00 in0.0 mm 0.00 in0.0 mm
02:30 PM 30.4°F-0.9°C 26.4°F-3.1°C 85% 10.4 mph NW16.7 kmh NW 11.5 mph18.5 kmh 30.26 in1024.7 mb - 0.00 in0.0 mm 0.00 in0.0 mm
03:00 PM 30.3°F-0.9°C 25.8°F-3.4°C 83% 8.1 mph NW13.0 kmh NW 11.5 mph18.5 kmh 30.27 in1025.1 mb - 0.00 in0.0 mm 0.00 in0.0 mm
03:30 PM 29.7°F-1.3°C 24.9°F-3.9°C 82% 6.9 mph NW11.1 kmh NW 9.2 mph14.8 kmh 30.27 in1025.1 mb - 0.00 in0.0 mm 0.00 in0.0 mm
04:00 PM 28.7°F-1.8°C 24.5°F-4.2°C 84% 6.9 mph NW11.1 kmh NW 9.2 mph14.8 kmh 30.28 in1025.4 mb - 0.00 in0.0 mm 0.00 in0.0 mm
04:30 PM 28.7°F-1.8°C 24.5°F-4.2°C 84% 8.1 mph NW13.0 kmh NW 11.5 mph18.5 kmh 30.29 in1025.7 mb - 0.00 in0.0 mm 0.00 in0.0 mm
05:00 PM 28.5°F-1.9°C 24.2°F-4.3°C 84% 12.7 mph NW20.4 kmh NW 21.9 mph35.2 kmh 30.30 in1026.1 mb - 0.00 in0.0 mm 0.00 in0.0 mm
05:30 PM 28.3°F-2.1°C 24.6°F-4.1°C 86% 13.8 mph NW22.2 kmh NW 17.3 mph27.8 kmh 30.30 in1026.1 mb - 0.00 in0.0 mm 0.00 in0.0 mm
06:00 PM 28.2°F-2.1°C 23.4°F-4.8°C 82% 6.9 mph NW11.1 kmh NW 11.5 mph18.5 kmh 30.30 in1026.1 mb - 0.00 in0.0 mm 0.00 in0.0 mm
06:30 PM 27.9°F-2.3°C 23.4°F-4.8°C 83% 13.8 mph NW22.2 kmh NW 21.9 mph35.2 kmh 30.30 in1026.1 mb - 0.00 in0.0 mm 0.00 in0.0 mm
07:00 PM 28.3°F-2.1°C 23.8°F-4.6°C 83% 15.0 mph NW24.1 kmh NW 21.9 mph35.2 kmh 30.32 in1026.8 mb - 0.00 in0.0 mm 0.00 in0.0 mm
07:30 PM 28.7°F-1.8°C 23.0°F-5.0°C 79% 15.0 mph NW24.1 kmh NW 19.6 mph31.5 kmh 30.32 in1026.8 mb - 0.00 in0.0 mm 0.00 in0.0 mm
08:00 PM 28.8°F-1.8°C 22.8°F-5.1°C 78% 11.5 mph NW18.5 kmh NW 13.8 mph22.2 kmh 30.33 in1027.1 mb - 0.00 in0.0 mm 0.00 in0.0 mm
08:30 PM 29.0°F-1.7°C 23.0°F-5.0°C 78% 9.2 mph NW14.8 kmh NW 16.1 mph25.9 kmh 30.34 in1027.4 mb - 0.00 in0.0 mm 0.00 in0.0 mm
09:00 PM 28.5°F-1.9°C 24.0°F-4.4°C 83% 6.9 mph NW11.1 kmh NW 8.1 mph13.0 kmh 30.34 in1027.4 mb - 0.00 in0.0 mm 0.00 in0.0 mm
09:30 PM 29.1°F-1.6°C 22.8°F-5.1°C 77% 9.2 mph NW14.8 kmh NW 12.7 mph20.4 kmh 30.35 in1027.8 mb - 0.00 in0.0 mm 0.00 in0.0 mm
10:00 PM 29.0°F-1.7°C 23.0°F-5.0°C 78% 10.4 mph NW16.7 kmh NW 12.7 mph20.4 kmh 30.35 in1027.8 mb - 0.00 in0.0 mm 0.00 in0.0 mm
10:30 PM 28.8°F-1.8°C 23.4°F-4.8°C 80% 9.2 mph NW14.8 kmh NW 13.8 mph22.2 kmh 30.36 in1028.1 mb - 0.00 in0.0 mm 0.00 in0.0 mm
11:00 PM 27.6°F-2.4°C 24.8°F-4.0°C 89% 5.8 mph NW9.3 kmh NW 8.1 mph13.0 kmh 30.36 in1028.1 mb - 0.00 in0.0 mm 0.00 in0.0 mm
11:30 PM 27.5°F-2.5°C 24.4°F-4.2°C 88% 6.9 mph NW11.1 kmh NW 10.4 mph16.7 kmh 30.36 in1028.1 mb - 0.00 in0.0 mm 0.00 in0.0 mm